sensor_id;sensor_type;location;lat;lon;timestamp;pressure;altitude;pressure_sealevel;temperature;humidity
37200;BME280;23096;50.892;16.746;2023-03-16T00:02:06;99662.52;;;0.98;65.10
37200;BME280;23096;50.892;16.746;2023-03-16T00:04:32;99663.85;;;0.97;65.13
37200;BME280;23096;50.892;16.746;2023-03-16T00:07:06;99663.17;;;0.96;65.18
37200;BME280;23096;50.892;16.746;2023-03-16T00:09:31;99664.34;;;0.95;65.26
37200;BME280;23096;50.892;16.746;2023-03-16T00:11:58;99668.71;;;0.93;65.13
37200;BME280;23096;50.892;16.746;2023-03-16T00:14:25;99668.02;;;0.92;65.30
37200;BME280;23096;50.892;16.746;2023-03-16T00:16:50;99674.94;;;0.91;65.34
37200;BME280;23096;50.892;16.746;2023-03-16T00:19:16;99677.46;;;0.90;65.25
37200;BME280;23096;50.892;16.746;2023-03-16T00:21:41;99679.29;;;0.88;65.14
37200;BME280;23096;50.892;16.746;2023-03-16T00:24:07;99684.00;;;0.86;65.34
37200;BME280;23096;50.892;16.746;2023-03-16T00:26:33;99683.32;;;0.85;65.33
37200;BME280;23096;50.892;16.746;2023-03-16T00:28:58;99688.04;;;0.84;65.31
37200;BME280;23096;50.892;16.746;2023-03-16T00:31:24;99692.57;;;0.83;65.41
37200;BME280;23096;50.892;16.746;2023-03-16T00:33:50;99690.33;;;0.79;65.46
37200;BME280;23096;50.892;16.746;2023-03-16T00:36:16;99695.36;;;0.76;65.46
37200;BME280;23096;50.892;16.746;2023-03-16T00:38:42;99696.67;;;0.74;65.50
37200;BME280;23096;50.892;16.746;2023-03-16T00:41:13;99700.68;;;0.71;65.58
37200;BME280;23096;50.892;16.746;2023-03-16T00:43:41;99697.61;;;0.69;65.67
37200;BME280;23096;50.892;16.746;2023-03-16T00:46:11;99704.91;;;0.70;65.77
37200;BME280;23096;50.892;16.746;2023-03-16T00:48:39;99702.69;;;0.69;65.70
37200;BME280;23096;50.892;16.746;2023-03-16T00:51:09;99702.52;;;0.69;65.65
37200;BME280;23096;50.892;16.746;2023-03-16T00:53:38;99707.58;;;0.69;65.66
37200;BME280;23096;50.892;16.746;2023-03-16T00:56:04;99708.59;;;0.68;65.66
37200;BME280;23096;50.892;16.746;2023-03-16T00:58:35;99712.11;;;0.66;65.74
37200;BME280;23096;50.892;16.746;2023-03-16T01:01:11;99713.73;;;0.62;65.76
37200;BME280;23096;50.892;16.746;2023-03-16T01:03:38;99715.05;;;0.60;65.81
37200;BME280;23096;50.892;16.746;2023-03-16T01:06:08;99716.05;;;0.58;65.81
37200;BME280;23096;50.892;16.746;2023-03-16T01:08:35;99719.74;;;0.56;65.79
37200;BME280;23096;50.892;16.746;2023-03-16T01:11:03;99720.58;;;0.56;65.86
37200;BME280;23096;50.892;16.746;2023-03-16T01:13:29;99720.91;;;0.56;65.88
37200;BME280;23096;50.892;16.746;2023-03-16T01:15:54;99720.75;;;0.56;65.81
37200;BME280;23096;50.892;16.746;2023-03-16T01:18:20;99718.37;;;0.55;65.98
37200;BME280;23096;50.892;16.746;2023-03-16T01:20:46;99723.61;;;0.55;66.00
37200;BME280;23096;50.892;16.746;2023-03-16T01:23:19;99724.61;;;0.54;66.02
37200;BME280;23096;50.892;16.746;2023-03-16T01:25:45;99724.08;;;0.52;66.10
37200;BME280;23096;50.892;16.746;2023-03-16T01:28:22;99728.62;;;0.51;65.96
37200;BME280;23096;50.892;16.746;2023-03-16T01:30:52;99733.50;;;0.50;66.23
37200;BME280;23096;50.892;16.746;2023-03-16T01:33:19;99736.52;;;0.48;66.17
37200;BME280;23096;50.892;16.746;2023-03-16T01:35:55;99738.02;;;0.46;66.36
37200;BME280;23096;50.892;16.746;2023-03-16T01:38:21;99739.84;;;0.45;66.16
37200;BME280;23096;50.892;16.746;2023-03-16T01:40:48;99742.19;;;0.44;66.23
37200;BME280;23096;50.892;16.746;2023-03-16T01:43:17;99744.17;;;0.41;66.23
37200;BME280;23096;50.892;16.746;2023-03-16T01:51:36;99748.83;;;0.37;66.46
37200;BME280;23096;50.892;16.746;2023-03-16T01:54:12;99749.17;;;0.37;66.40
37200;BME280;23096;50.892;16.746;2023-03-16T01:56:51;99749.17;;;0.37;66.35
37200;BME280;23096;50.892;16.746;2023-03-16T01:59:21;99750.36;;;0.37;66.55
37200;BME280;23096;50.892;16.746;2023-03-16T02:01:48;99750.33;;;0.35;66.69
37200;BME280;23096;50.892;16.746;2023-03-16T02:07:05;99753.34;;;0.33;66.57
37200;BME280;23096;50.892;16.746;2023-03-16T02:09:34;99755.02;;;0.33;66.64
37200;BME280;23096;50.892;16.746;2023-03-16T02:12:02;99754.15;;;0.32;66.70
37200;BME280;23096;50.892;16.746;2023-03-16T02:14:28;99756.48;;;0.29;66.71
37200;BME280;23096;50.892;16.746;2023-03-16T02:16:55;99754.09;;;0.28;66.76
37200;BME280;23096;50.892;16.746;2023-03-16T02:19:41;99753.92;;;0.28;66.75
37200;BME280;23096;50.892;16.746;2023-03-16T02:22:10;99755.41;;;0.27;66.78
37200;BME280;23096;50.892;16.746;2023-03-16T02:24:36;99755.91;;;0.26;66.98
37200;BME280;23096;50.892;16.746;2023-03-16T02:27:36;99755.40;;;0.26;66.93
37200;BME280;23096;50.892;16.746;2023-03-16T02:30:16;99756.58;;;0.26;66.90
37200;BME280;23096;50.892;16.746;2023-03-16T02:32:53;99758.62;;;0.26;66.95
37200;BME280;23096;50.892;16.746;2023-03-16T02:35:20;99758.13;;;0.27;67.03
37200;BME280;23096;50.892;16.746;2023-03-16T02:37:46;99759.64;;;0.27;67.02
37200;BME280;23096;50.892;16.746;2023-03-16T02:40:16;99760.31;;;0.27;67.03
37200;BME280;23096;50.892;16.746;2023-03-16T02:42:46;99765.06;;;0.27;67.01
37200;BME280;23096;50.892;16.746;2023-03-16T02:45:13;99763.02;;;0.27;67.18
37200;BME280;23096;50.892;16.746;2023-03-16T02:47:42;99764.23;;;0.27;67.19
37200;BME280;23096;50.892;16.746;2023-03-16T02:50:09;99764.91;;;0.28;67.20
37200;BME280;23096;50.892;16.746;2023-03-16T02:52:36;99771.20;;;0.31;67.24
37200;BME280;23096;50.892;16.746;2023-03-16T02:55:04;99771.70;;;0.31;67.12
37200;BME280;23096;50.892;16.746;2023-03-16T02:57:30;99765.79;;;0.31;67.27
37200;BME280;23096;50.892;16.746;2023-03-16T02:59:58;99765.80;;;0.32;67.27
37200;BME280;23096;50.892;16.746;2023-03-16T03:02:24;99770.17;;;0.30;67.39
37200;BME280;23096;50.892;16.746;2023-03-16T03:04:50;99769.17;;;0.30;67.31
37200;BME280;23096;50.892;16.746;2023-03-16T03:07:19;99769.80;;;0.28;67.30
37200;BME280;23096;50.892;16.746;2023-03-16T03:09:55;99771.29;;;0.27;67.34
37200;BME280;23096;50.892;16.746;2023-03-16T10:43:49;100005.89;;;5.52;59.45
37200;BME280;23096;50.892;16.746;2023-03-16T10:46:15;100005.71;;;5.49;59.28
37200;BME280;23096;50.892;16.746;2023-03-16T10:48:50;100004.01;;;5.53;59.26
37200;BME280;23096;50.892;16.746;2023-03-16T10:51:18;100001.63;;;5.56;59.11
37200;BME280;23096;50.892;16.746;2023-03-16T10:53:49;100001.80;;;5.54;58.80
37200;BME280;23096;50.892;16.746;2023-03-16T10:56:23;100002.14;;;5.50;58.49
37200;BME280;23096;50.892;16.746;2023-03-16T10:58:50;100002.48;;;5.58;58.39
37200;BME280;23096;50.892;16.746;2023-03-16T11:01:26;100002.66;;;5.66;58.30
37200;BME280;23096;50.892;16.746;2023-03-16T11:03:57;99997.02;;;5.71;58.06
37200;BME280;23096;50.892;16.746;2023-03-16T11:06:31;99995.48;;;5.75;57.86
37200;BME280;23096;50.892;16.746;2023-03-16T11:09:06;99994.13;;;5.79;57.63
37200;BME280;23096;50.892;16.746;2023-03-16T11:11:34;99991.91;;;5.86;57.48
37200;BME280;23096;50.892;16.746;2023-03-16T11:14:02;99991.04;;;5.91;57.28
37200;BME280;23096;50.892;16.746;2023-03-16T11:16:48;99987.81;;;5.91;57.08
37200;BME280;23096;50.892;16.746;2023-03-16T11:19:26;99996.17;;;5.91;57.02
37200;BME280;23096;50.892;16.746;2023-03-16T11:22:03;99992.27;;;5.97;56.73
37200;BME280;23096;50.892;16.746;2023-03-16T11:24:54;99989.18;;;6.04;56.63
37200;BME280;23096;50.892;16.746;2023-03-16T11:30:15;99978.95;;;6.12;56.11
37200;BME280;23096;50.892;16.746;2023-03-16T11:32:50;99976.56;;;6.07;55.83
37200;BME280;23096;50.892;16.746;2023-03-16T11:35:18;99979.45;;;6.13;55.79
37200;BME280;23096;50.892;16.746;2023-03-16T11:38:12;99982.16;;;6.21;55.69
37200;BME280;23096;50.892;16.746;2023-03-16T11:46:07;99978.19;;;6.38;55.09
37200;BME280;23096;50.892;16.746;2023-03-16T11:51:39;99971.73;;;6.36;54.80
37200;BME280;23096;50.892;16.746;2023-03-16T12:08:01;99962.11;;;6.49;53.77
37200;BME280;23096;50.892;16.746;2023-03-16T12:11:02;99960.37;;;6.58;53.57
37200;BME280;23096;50.892;16.746;2023-03-16T12:16:45;99959.45;;;6.71;53.32
37200;BME280;23096;50.892;16.746;2023-03-16T12:22:19;99957.31;;;6.91;53.15
37200;BME280;23096;50.892;16.746;2023-03-16T12:24:48;99953.08;;;6.82;52.62
37200;BME280;23096;50.892;16.746;2023-03-16T12:27:18;99954.30;;;6.78;52.72
37200;BME280;23096;50.892;16.746;2023-03-16T12:29:51;99952.34;;;6.92;52.69
37200;BME280;23096;50.892;16.746;2023-03-16T12:35:38;99945.34;;;7.18;52.56
37200;BME280;23096;50.892;16.746;2023-03-16T12:40:59;99946.05;;;7.14;51.99
37200;BME280;23096;50.892;16.746;2023-03-16T12:46:49;99941.96;;;7.13;51.74
37200;BME280;23096;50.892;16.746;2023-03-16T12:49:17;99938.39;;;7.11;51.56
37200;BME280;23096;50.892;16.746;2023-03-16T12:51:44;99935.86;;;7.07;51.28
37200;BME280;23096;50.892;16.746;2023-03-16T12:54:21;99936.08;;;6.99;51.11
37200;BME280;23096;50.892;16.746;2023-03-16T12:56:48;99938.66;;;6.95;50.98
37200;BME280;23096;50.892;16.746;2023-03-16T12:59:17;99945.00;;;6.91;50.81
37200;BME280;23096;50.892;16.746;2023-03-16T13:01:44;99947.60;;;6.85;50.65
37200;BME280;23096;50.892;16.746;2023-03-16T13:04:18;99946.95;;;6.81;50.58
37200;BME280;23096;50.892;16.746;2023-03-16T13:06:47;99943.38;;;6.77;50.41
37200;BME280;23096;50.892;16.746;2023-03-16T13:09:24;99946.65;;;6.72;50.22
37200;BME280;23096;50.892;16.746;2023-03-16T13:11:52;99944.93;;;6.73;50.17
37200;BME280;23096;50.892;16.746;2023-03-16T13:14:47;99947.30;;;6.79;50.18
37200;BME280;23096;50.892;16.746;2023-03-16T13:19:40;99953.19;;;6.95;49.99
37200;BME280;23096;50.892;16.746;2023-03-16T13:27:53;99954.83;;;7.03;49.73
37200;BME280;23096;50.892;16.746;2023-03-16T13:30:23;99953.46;;;7.03;49.52
37200;BME280;23096;50.892;16.746;2023-03-16T13:32:55;99956.90;;;7.01;49.41
37200;BME280;23096;50.892;16.746;2023-03-16T13:35:25;99953.27;;;7.09;49.38
37200;BME280;23096;50.892;16.746;2023-03-16T13:37:52;99946.04;;;7.17;49.26
37200;BME280;23096;50.892;16.746;2023-03-16T13:40:20;99943.98;;;7.18;49.06
37200;BME280;23096;50.892;16.746;2023-03-16T13:42:47;99945.02;;;7.16;48.91
37200;BME280;23096;50.892;16.746;2023-03-16T13:45:23;99950.30;;;7.18;48.87
37200;BME280;23096;50.892;16.746;2023-03-16T13:47:52;99948.21;;;7.22;48.81
37200;BME280;23096;50.892;16.746;2023-03-16T13:50:18;99944.13;;;7.20;48.58
37200;BME280;23096;50.892;16.746;2023-03-16T13:53:00;99943.30;;;7.19;48.50
37200;BME280;23096;50.892;16.746;2023-03-16T13:55:30;99946.51;;;7.24;48.28
37200;BME280;23096;50.892;16.746;2023-03-16T13:57:57;99948.55;;;7.23;48.21
37200;BME280;23096;50.892;16.746;2023-03-16T14:00:26;99948.54;;;7.27;48.13
37200;BME280;23096;50.892;16.746;2023-03-16T14:02:54;99948.05;;;7.24;47.81
37200;BME280;23096;50.892;16.746;2023-03-16T14:05:40;99941.23;;;7.19;47.83
37200;BME280;23096;50.892;16.746;2023-03-16T14:08:18;99940.58;;;7.17;47.72
37200;BME280;23096;50.892;16.746;2023-03-16T14:10:44;99938.88;;;7.15;47.42
37200;BME280;23096;50.892;16.746;2023-03-16T14:15:53;99932.89;;;7.14;47.36
37200;BME280;23096;50.892;16.746;2023-03-16T14:18:31;99930.50;;;7.15;47.19
37200;BME280;23096;50.892;16.746;2023-03-16T14:20:58;99930.55;;;7.10;46.96
37200;BME280;23096;50.892;16.746;2023-03-16T14:23:29;99930.36;;;7.09;46.95
37200;BME280;23096;50.892;16.746;2023-03-16T14:25:57;99926.96;;;7.06;46.74
37200;BME280;23096;50.892;16.746;2023-03-16T14:28:29;99928.01;;;7.05;46.65
37200;BME280;23096;50.892;16.746;2023-03-16T14:31:09;99923.86;;;7.10;46.60
37200;BME280;23096;50.892;16.746;2023-03-16T14:33:37;99916.69;;;7.11;46.50
37200;BME280;23096;50.892;16.746;2023-03-16T14:36:18;99913.94;;;7.13;46.35
37200;BME280;23096;50.892;16.746;2023-03-16T14:38:46;99913.60;;;7.12;46.22
37200;BME280;23096;50.892;16.746;2023-03-16T14:41:24;99910.18;;;7.13;46.11
37200;BME280;23096;50.892;16.746;2023-03-16T14:43:58;99908.44;;;7.18;46.06
37200;BME280;23096;50.892;16.746;2023-03-16T14:46:31;99913.63;;;7.31;45.96
37200;BME280;23096;50.892;16.746;2023-03-16T14:49:01;99909.11;;;7.41;45.91
37200;BME280;23096;50.892;16.746;2023-03-16T14:51:28;99907.23;;;7.40;45.62
37200;BME280;23096;50.892;16.746;2023-03-16T14:53:56;99904.82;;;7.42;45.48
37200;BME280;23096;50.892;16.746;2023-03-16T14:56:21;99900.17;;;7.46;45.28
37200;BME280;23096;50.892;16.746;2023-03-16T14:58:47;99903.95;;;7.43;45.05
37200;BME280;23096;50.892;16.746;2023-03-16T15:01:15;99898.20;;;7.37;44.94
37200;BME280;23096;50.892;16.746;2023-03-16T15:03:42;99899.28;;;7.30;44.85
37200;BME280;23096;50.892;16.746;2023-03-16T15:06:09;99897.45;;;7.25;44.71
37200;BME280;23096;50.892;16.746;2023-03-16T15:08:37;99899.48;;;7.27;44.71
37200;BME280;23096;50.892;16.746;2023-03-16T15:11:08;99897.54;;;7.34;44.64
37200;BME280;23096;50.892;16.746;2023-03-16T15:13:34;99897.66;;;7.40;44.56
37200;BME280;23096;50.892;16.746;2023-03-16T15:16:06;99895.36;;;7.48;44.49
37200;BME280;23096;50.892;16.746;2023-03-16T15:18:34;99895.79;;;7.60;44.38
37200;BME280;23096;50.892;16.746;2023-03-16T15:21:00;99894.68;;;7.67;44.28
37200;BME280;23096;50.892;16.746;2023-03-16T15:23:27;99893.77;;;7.73;44.29
37200;BME280;23096;50.892;16.746;2023-03-16T15:25:53;99897.70;;;7.90;44.35
37200;BME280;23096;50.892;16.746;2023-03-16T15:28:26;99895.57;;;7.98;44.13
37200;BME280;23096;50.892;16.746;2023-03-16T15:30:54;99900.77;;;7.92;43.96
37200;BME280;23096;50.892;16.746;2023-03-16T15:33:20;99900.98;;;7.88;43.85
37200;BME280;23096;50.892;16.746;2023-03-16T15:35:48;99902.05;;;7.83;43.88
37200;BME280;23096;50.892;16.746;2023-03-16T15:38:17;99899.52;;;7.95;44.02
37200;BME280;23096;50.892;16.746;2023-03-16T15:40:45;99896.93;;;8.13;43.94
37200;BME280;23096;50.892;16.746;2023-03-16T15:43:16;99896.94;;;8.13;43.71
37200;BME280;23096;50.892;16.746;2023-03-16T15:45:42;99900.67;;;8.01;43.54
37200;BME280;23096;50.892;16.746;2023-03-16T15:48:09;99901.63;;;7.91;43.47
37200;BME280;23096;50.892;16.746;2023-03-16T15:50:36;99900.95;;;7.74;43.26
37200;BME280;23096;50.892;16.746;2023-03-16T15:53:11;99898.54;;;7.58;43.22
37200;BME280;23096;50.892;16.746;2023-03-16T15:55:42;99894.22;;;7.43;43.21
37200;BME280;23096;50.892;16.746;2023-03-16T15:58:18;99894.82;;;7.32;43.12
37200;BME280;23096;50.892;16.746;2023-03-16T16:00:46;99897.14;;;7.22;43.06
37200;BME280;23096;50.892;16.746;2023-03-16T16:03:12;99896.48;;;7.18;43.12
37200;BME280;23096;50.892;16.746;2023-03-16T16:05:38;99899.36;;;7.19;43.20
37200;BME280;23096;50.892;16.746;2023-03-16T16:08:04;99901.60;;;7.18;43.07
37200;BME280;23096;50.892;16.746;2023-03-16T16:10:30;99907.59;;;7.17;43.16
37200;BME280;23096;50.892;16.746;2023-03-16T16:12:57;99906.43;;;7.12;43.13
37200;BME280;23096;50.892;16.746;2023-03-16T16:15:28;99902.74;;;7.02;43.07
37200;BME280;23096;50.892;16.746;2023-03-16T16:17:59;99902.82;;;6.90;43.10
37200;BME280;23096;50.892;16.746;2023-03-16T16:20:31;99905.30;;;6.75;43.07
37200;BME280;23096;50.892;16.746;2023-03-16T16:22:57;99907.45;;;6.56;43.16
37200;BME280;23096;50.892;16.746;2023-03-16T16:25:33;99909.24;;;6.41;43.19
37200;BME280;23096;50.892;16.746;2023-03-16T16:28:00;99914.24;;;6.25;43.32
37200;BME280;23096;50.892;16.746;2023-03-16T16:30:28;99911.05;;;6.09;43.33
37200;BME280;23096;50.892;16.746;2023-03-16T16:32:56;99913.65;;;5.99;43.35
37200;BME280;23096;50.892;16.746;2023-03-16T16:35:27;99917.23;;;5.89;43.39
37200;BME280;23096;50.892;16.746;2023-03-16T16:37:53;99919.63;;;5.76;43.40
37200;BME280;23096;50.892;16.746;2023-03-16T16:40:21;99917.08;;;5.67;43.50
37200;BME280;23096;50.892;16.746;2023-03-16T16:42:49;99915.21;;;5.54;43.48
37200;BME280;23096;50.892;16.746;2023-03-16T16:45:18;99916.91;;;5.41;43.49
37200;BME280;23096;50.892;16.746;2023-03-16T16:47:46;99918.80;;;5.29;43.57
37200;BME280;23096;50.892;16.746;2023-03-16T16:50:21;99921.86;;;5.19;43.60
37200;BME280;23096;50.892;16.746;2023-03-16T16:52:48;99921.69;;;5.09;43.64
37200;BME280;23096;50.892;16.746;2023-03-16T16:55:15;99917.92;;;5.00;43.67
37200;BME280;23096;50.892;16.746;2023-03-16T16:57:41;99918.25;;;4.91;43.63
37200;BME280;23096;50.892;16.746;2023-03-16T17:00:24;99922.15;;;4.82;43.80
37200;BME280;23096;50.892;16.746;2023-03-16T17:02:52;99922.97;;;4.71;43.82
37200;BME280;23096;50.892;16.746;2023-03-16T17:05:20;99926.17;;;4.61;43.95
37200;BME280;23096;50.892;16.746;2023-03-16T17:07:47;99926.33;;;4.54;44.04
37200;BME280;23096;50.892;16.746;2023-03-16T17:10:19;99932.09;;;4.52;44.27
37200;BME280;23096;50.892;16.746;2023-03-16T17:12:50;99933.63;;;4.52;44.41
37200;BME280;23096;50.892;16.746;2023-03-16T17:17:48;99932.75;;;4.45;44.46
37200;BME280;23096;50.892;16.746;2023-03-16T17:20:16;99938.52;;;4.43;44.45
37200;BME280;23096;50.892;16.746;2023-03-16T17:22:45;99938.00;;;4.42;44.71
37200;BME280;23096;50.892;16.746;2023-03-16T17:25:11;99937.65;;;4.38;44.71
37200;BME280;23096;50.892;16.746;2023-03-16T17:27:38;99941.05;;;4.37;44.80
37200;BME280;23096;50.892;16.746;2023-03-16T17:30:17;99940.03;;;4.36;44.84
37200;BME280;23096;50.892;16.746;2023-03-16T17:32:43;99944.11;;;4.36;45.07
37200;BME280;23096;50.892;16.746;2023-03-16T17:35:14;99946.31;;;4.35;45.04
37200;BME280;23096;50.892;16.746;2023-03-16T17:37:40;99950.40;;;4.33;45.11
37200;BME280;23096;50.892;16.746;2023-03-16T17:40:14;99952.94;;;4.31;45.12
37200;BME280;23096;50.892;16.746;2023-03-16T17:42:40;99946.98;;;4.30;45.34
37200;BME280;23096;50.892;16.746;2023-03-16T17:45:18;99943.05;;;4.27;45.36
37200;BME280;23096;50.892;16.746;2023-03-16T17:47:44;99944.55;;;4.21;45.36
37200;BME280;23096;50.892;16.746;2023-03-16T17:52:45;99954.25;;;3.94;45.34
37200;BME280;23096;50.892;16.746;2023-03-16T17:55:11;99948.42;;;3.85;45.43
37200;BME280;23096;50.892;16.746;2023-03-16T17:57:38;99950.77;;;3.80;45.64
37200;BME280;23096;50.892;16.746;2023-03-16T18:00:16;99954.49;;;3.78;45.83
37200;BME280;23096;50.892;16.746;2023-03-16T18:02:52;99954.45;;;3.71;45.79
37200;BME280;23096;50.892;16.746;2023-03-16T18:05:27;99953.54;;;3.63;45.91
37200;BME280;23096;50.892;16.746;2023-03-16T18:07:55;99956.53;;;3.56;45.95
37200;BME280;23096;50.892;16.746;2023-03-16T18:10:28;99960.62;;;3.57;46.20
37200;BME280;23096;50.892;16.746;2023-03-16T18:12:59;99960.45;;;3.57;46.32
37200;BME280;23096;50.892;16.746;2023-03-16T18:15:29;99964.14;;;3.53;46.26
37200;BME280;23096;50.892;16.746;2023-03-16T18:17:56;99962.93;;;3.49;46.40
37200;BME280;23096;50.892;16.746;2023-03-16T18:20:28;99961.59;;;3.51;46.52
37200;BME280;23096;50.892;16.746;2023-03-16T18:22:56;99966.15;;;3.48;46.44
37200;BME280;23096;50.892;16.746;2023-03-16T18:25:34;99970.70;;;3.43;46.50
37200;BME280;23096;50.892;16.746;2023-03-16T18:28:04;99967.63;;;3.40;46.61
37200;BME280;23096;50.892;16.746;2023-03-16T18:30:30;99964.55;;;3.39;46.57
37200;BME280;23096;50.892;16.746;2023-03-16T18:32:57;99962.85;;;3.37;46.76
37200;BME280;23096;50.892;16.746;2023-03-16T18:35:24;99957.75;;;3.37;46.70
37200;BME280;23096;50.892;16.746;2023-03-16T18:37:50;99955.00;;;3.34;46.95
37200;BME280;23096;50.892;16.746;2023-03-16T18:40:20;99952.41;;;3.30;46.87
37200;BME280;23096;50.892;16.746;2023-03-16T18:42:46;99954.56;;;3.23;46.98
37200;BME280;23096;50.892;16.746;2023-03-16T18:45:14;99957.80;;;3.24;47.18
37200;BME280;23096;50.892;16.746;2023-03-16T18:47:50;99955.77;;;3.26;47.25
37200;BME280;23096;50.892;16.746;2023-03-16T18:50:22;99957.15;;;3.29;47.42
37200;BME280;23096;50.892;16.746;2023-03-16T18:52:51;99951.52;;;3.27;47.42
37200;BME280;23096;50.892;16.746;2023-03-16T18:55:20;99949.80;;;3.23;47.26
37200;BME280;23096;50.892;16.746;2023-03-16T18:57:47;99951.13;;;3.19;47.44
37200;BME280;23096;50.892;16.746;2023-03-16T19:00:19;99954.17;;;3.17;47.54
37200;BME280;23096;50.892;16.746;2023-03-16T19:02:49;99953.36;;;3.22;47.69
37200;BME280;23096;50.892;16.746;2023-03-16T19:05:19;99955.98;;;3.30;47.72
37200;BME280;23096;50.892;16.746;2023-03-16T19:07:48;99959.10;;;3.38;47.66
37200;BME280;23096;50.892;16.746;2023-03-16T19:12:45;99958.35;;;3.49;47.86
37200;BME280;23096;50.892;16.746;2023-03-16T19:15:29;99956.52;;;3.54;47.73
37200;BME280;23096;50.892;16.746;2023-03-16T19:17:56;99953.17;;;3.61;48.02
37200;BME280;23096;50.892;16.746;2023-03-16T19:20:25;99946.79;;;3.69;48.05
37200;BME280;23096;50.892;16.746;2023-03-16T19:22:57;99945.11;;;3.73;47.96
37200;BME280;23096;50.892;16.746;2023-03-16T19:25:28;99943.60;;;3.76;48.00
37200;BME280;23096;50.892;16.746;2023-03-16T19:27:56;99946.68;;;3.79;48.00
37200;BME280;23096;50.892;16.746;2023-03-16T19:30:30;99951.62;;;3.82;48.12
37200;BME280;23096;50.892;16.746;2023-03-16T19:32:56;99952.31;;;3.84;48.11
37200;BME280;23096;50.892;16.746;2023-03-16T19:35:24;99954.38;;;3.86;48.23
37200;BME280;23096;50.892;16.746;2023-03-16T19:37:50;99951.66;;;3.88;47.99
37200;BME280;23096;50.892;16.746;2023-03-16T19:40:19;99951.67;;;3.88;48.09
37200;BME280;23096;50.892;16.746;2023-03-16T19:42:45;99950.66;;;3.89;48.09
37200;BME280;23096;50.892;16.746;2023-03-16T19:45:36;99951.36;;;3.92;48.15
37200;BME280;23096;50.892;16.746;2023-03-16T19:48:10;99950.17;;;3.92;48.17
37200;BME280;23096;50.892;16.746;2023-03-16T19:50:37;99951.36;;;3.93;48.21
37200;BME280;23096;50.892;16.746;2023-03-16T19:53:04;99957.32;;;3.94;48.13
37200;BME280;23096;50.892;16.746;2023-03-16T19:55:30;99960.19;;;3.93;48.12
37200;BME280;23096;50.892;16.746;2023-03-16T19:58:02;99963.26;;;3.91;48.16
37200;BME280;23096;50.892;16.746;2023-03-16T20:00:30;99965.63;;;3.91;48.13
37200;BME280;23096;50.892;16.746;2023-03-16T20:02:56;99966.30;;;3.91;48.10
37200;BME280;23096;50.892;16.746;2023-03-16T20:05:27;99966.13;;;3.91;48.01
37200;BME280;23096;50.892;16.746;2023-03-16T20:07:56;99966.30;;;3.91;48.10
37200;BME280;23096;50.892;16.746;2023-03-16T20:10:24;99964.92;;;3.89;48.13
37200;BME280;23096;50.892;16.746;2023-03-16T20:12:56;99961.52;;;3.87;48.17
37200;BME280;23096;50.892;16.746;2023-03-16T20:15:23;99959.64;;;3.86;48.22
37200;BME280;23096;50.892;16.746;2023-03-16T20:17:51;99962.70;;;3.85;48.09
37200;BME280;23096;50.892;16.746;2023-03-16T20:20:24;99960.80;;;3.83;48.24
37200;BME280;23096;50.892;16.746;2023-03-16T20:22:50;99961.48;;;3.81;48.11
37200;BME280;23096;50.892;16.746;2023-03-16T20:25:17;99965.20;;;3.79;48.17
37200;BME280;23096;50.892;16.746;2023-03-16T20:27:44;99960.77;;;3.77;48.16
37200;BME280;23096;50.892;16.746;2023-03-16T20:30:16;99958.71;;;3.74;48.31
37200;BME280;23096;50.892;16.746;2023-03-16T20:32:43;99962.61;;;3.72;48.28
37200;BME280;23096;50.892;16.746;2023-03-16T20:35:17;99961.91;;;3.70;48.30
37200;BME280;23096;50.892;16.746;2023-03-16T20:37:44;99958.67;;;3.68;48.36
37200;BME280;23096;50.892;16.746;2023-03-16T20:40:10;99958.32;;;3.68;48.38
37200;BME280;23096;50.892;16.746;2023-03-16T20:42:36;99953.23;;;3.68;48.33
37200;BME280;23096;50.892;16.746;2023-03-16T20:45:13;99946.92;;;3.66;48.35
37200;BME280;23096;50.892;16.746;2023-03-16T20:47:39;99944.54;;;3.65;48.31
37200;BME280;23096;50.892;16.746;2023-03-16T20:50:25;99943.34;;;3.62;48.35
37200;BME280;23096;50.892;16.746;2023-03-16T20:52:52;99941.61;;;3.60;48.31
37200;BME280;23096;50.892;16.746;2023-03-16T20:55:21;99937.86;;;3.58;48.31
37200;BME280;23096;50.892;16.746;2023-03-16T20:57:49;99936.33;;;3.57;48.31
37200;BME280;23096;50.892;16.746;2023-03-16T21:00:43;99931.23;;;3.56;48.34
37200;BME280;23096;50.892;16.746;2023-03-16T21:03:17;99927.98;;;3.53;48.40
37200;BME280;23096;50.892;16.746;2023-03-16T21:05:44;99925.91;;;3.52;48.57
37200;BME280;23096;50.892;16.746;2023-03-16T21:08:10;99923.20;;;3.51;48.59
37200;BME280;23096;50.892;16.746;2023-03-16T21:10:37;99921.16;;;3.49;48.62
37200;BME280;23096;50.892;16.746;2023-03-16T21:13:03;99919.78;;;3.48;48.67
37200;BME280;23096;50.892;16.746;2023-03-16T21:15:30;99919.09;;;3.47;48.60
37200;BME280;23096;50.892;16.746;2023-03-16T21:17:59;99915.00;;;3.46;48.73
37200;BME280;23096;50.892;16.746;2023-03-16T21:20:28;99913.79;;;3.44;48.68
37200;BME280;23096;50.892;16.746;2023-03-16T21:22:54;99908.02;;;3.43;48.69
37200;BME280;23096;50.892;16.746;2023-03-16T21:25:29;99907.52;;;3.43;48.72
37200;BME280;23096;50.892;16.746;2023-03-16T21:27:58;99901.91;;;3.44;48.76
37200;BME280;23096;50.892;16.746;2023-03-16T21:30:31;99903.62;;;3.45;48.95
37200;BME280;23096;50.892;16.746;2023-03-16T21:32:58;99903.12;;;3.45;48.73
37200;BME280;23096;50.892;16.746;2023-03-16T21:35:31;99899.20;;;3.45;48.81
37200;BME280;23096;50.892;16.746;2023-03-16T21:37:58;99896.30;;;3.43;48.79
37200;BME280;23096;50.892;16.746;2023-03-16T21:40:24;99893.91;;;3.41;48.85
37200;BME280;23096;50.892;16.746;2023-03-16T21:42:50;99887.27;;;3.39;48.81
37200;BME280;23096;50.892;16.746;2023-03-16T21:45:16;99883.36;;;3.38;48.85
37200;BME280;23096;50.892;16.746;2023-03-16T21:47:42;99880.27;;;3.35;48.94
37200;BME280;23096;50.892;16.746;2023-03-16T21:50:20;99881.29;;;3.34;48.86
37200;BME280;23096;50.892;16.746;2023-03-16T21:52:50;99883.30;;;3.31;48.85
37200;BME280;23096;50.892;16.746;2023-03-16T21:55:21;99881.39;;;3.26;48.86